Weather at Batlava-Donja Penduha Air Base [CLOSED]

Public forecast

Using degrees Celsius for public forecast. Weather courtesy of forecast.io.

Closest aviation weather report (METAR) to Batlava-Donja Penduha Air Base

Closest report is Priština Adem Jashari International Airport, 18.5 nm (34.4 km) SSW. Retrieved 2022/07/02 16:30 UTC (8 minutes ago):

BKPR 021630Z 01014KT 9999 FEW030TCU FEW040CB 31/16 Q1019 NOSIG

Closest aviation forecast (TAF) to Batlava-Donja Penduha Air Base

Closest forecast is Priština Adem Jashari International Airport, 18.5 nm (34.4 km) SSW. Retrieved 2022/07/02 12:30 UTC (4 hours ago):

TAF BKPR 021130Z 0212/0312 02010KT 9999 FEW050 TEMPO 0212/0218 VRB15G25KT 5000 -TSRA SCT030CB